Time,TemperatureF,DewpointF,PressureIn,WindDirection,WindDirectionDegrees,WindSpeedMPH,WindSpeedGustMPH,Humidity,HourlyPrecipIn,Conditions,Clouds,dailyrainin,SoftwareType,DateUTC
2013-06-23 00:00:00,60.1,53.2,29.51,NNE,22,0.0,0.0,78,0.00,CLR,,0.00,WeatherDisplay:10.37,2013-06-23 07:00:00,
2013-06-23 00:05:00,59.9,53.4,29.50,NNE,22,0.0,0.0,79,0.00,CLR,,0.00,WeatherDisplay:10.37,2013-06-23 07:05:00,
2013-06-23 00:10:00,59.9,53.4,29.50,NNE,22,0.0,0.0,79,0.00,CLR,,0.00,WeatherDisplay:10.37,2013-06-23 07:10:00,
2013-06-23 00:15:00,59.9,53.4,29.50,NNE,22,0.0,0.0,79,0.00,CLR,,0.00,WeatherDisplay:10.37,2013-06-23 07:15:00,
2013-06-23 00:20:00,59.7,53.2,29.50,NNE,22,0.0,0.0,79,0.00,CLR,,0.00,WeatherDisplay:10.37,2013-06-23 07:20:00,
2013-06-23 00:25:00,59.7,53.2,29.50,NNE,22,0.0,0.0,79,0.00,CLR,,0.00,WeatherDisplay:10.37,2013-06-23 07:25:00,
2013-06-23 00:30:00,59.5,53.4,29.50,NNE,22,0.0,0.0,80,0.00,CLR,,0.00,WeatherDisplay:10.37,2013-06-23 07:30:00,
2013-06-23 00:35:00,59.4,53.2,29.50,NNE,22,0.0,0.0,80,0.00,CLR,,0.00,WeatherDisplay:10.37,2013-06-23 07:35:00,
2013-06-23 00:40:00,59.4,53.2,29.50,NNE,22,0.0,0.0,80,0.00,CLR,,0.00,WeatherDisplay:10.37,2013-06-23 07:40:00,
2013-06-23 00:45:00,59.2,53.0,29.49,NNE,22,0.0,0.0,80,0.00,CLR,,0.00,WeatherDisplay:10.37,2013-06-23 07:45:00,
2013-06-23 00:50:00,59.2,53.0,29.49,NNE,22,0.0,0.0,80,0.00,CLR,,0.00,WeatherDisplay:10.37,2013-06-23 07:50:00,
2013-06-23 00:55:00,59.0,52.8,29.49,NNE,22,0.0,0.0,80,0.00,CLR,,0.00,WeatherDisplay:10.37,2013-06-23 07:55:00,
2013-06-23 01:00:00,58.8,52.7,29.49,NNE,22,0.0,0.0,80,0.00,CLR,,0.00,WeatherDisplay:10.37,2013-06-23 08:00:00,
2013-06-23 01:05:00,58.8,53.0,29.49,NNE,22,0.0,0.0,81,0.00,CLR,,0.00,WeatherDisplay:10.37,2013-06-23 08:05:00,
2013-06-23 01:10:00,58.8,53.0,29.49,NNE,22,0.0,0.0,81,0.00,CLR,,0.00,WeatherDisplay:10.37,2013-06-23 08:10:00,
2013-06-23 01:15:00,58.8,53.0,29.49,NNE,22,0.0,0.0,81,0.00,CLR,,0.00,WeatherDisplay:10.37,2013-06-23 08:15:00,
2013-06-23 01:20:00,58.8,53.0,29.49,NNE,22,0.0,0.0,81,0.00,CLR,,0.00,WeatherDisplay:10.37,2013-06-23 08:20:00,
2013-06-23 01:25:00,58.8,53.0,29.49,NNE,22,0.0,0.0,81,0.00,CLR,,0.00,WeatherDisplay:10.37,2013-06-23 08:25:00,
2013-06-23 01:30:00,58.8,53.3,29.48,NNE,22,0.0,0.0,82,0.00,CLR,,0.00,WeatherDisplay:10.37,2013-06-23 08:30:00,
2013-06-23 01:35:00,58.6,53.2,29.48,NNE,22,0.0,0.0,82,0.00,CLR,,0.00,WeatherDisplay:10.37,2013-06-23 08:35:00,
2013-06-23 01:40:00,58.6,53.2,29.48,NNE,22,0.0,0.0,82,0.00,CLR,,0.00,WeatherDisplay:10.37,2013-06-23 08:40:00,
2013-06-23 01:45:00,58.6,53.2,29.48,NNE,22,0.0,0.0,82,0.00,CLR,,0.00,WeatherDisplay:10.37,2013-06-23 08:45:00,
2013-06-23 01:50:00,58.5,53.0,29.48,NNE,22,0.0,0.0,82,0.00,CLR,,0.00,WeatherDisplay:10.37,2013-06-23 08:50:00,
2013-06-23 01:56:00,58.3,52.8,29.48,NNE,22,0.0,0.0,82,0.00,CLR,,0.00,WeatherDisplay:10.37,2013-06-23 08:56:00,
2013-06-23 02:01:00,58.3,52.8,29.48,NNE,22,0.0,0.0,82,0.00,CLR,,0.00,WeatherDisplay:10.37,2013-06-23 09:01:00,
2013-06-23 02:06:00,58.3,53.1,29.48,NNE,22,0.0,0.0,83,0.00,CLR,,0.00,WeatherDisplay:10.37,2013-06-23 09:06:00,
2013-06-23 02:11:00,58.1,53.0,29.48,NNE,22,0.0,0.0,83,0.00,CLR,,0.00,WeatherDisplay:10.37,2013-06-23 09:11:00,
2013-06-23 02:16:00,58.1,53.0,29.48,NNE,22,0.0,0.0,83,0.00,CLR,,0.00,WeatherDisplay:10.37,2013-06-23 09:16:00,
2013-06-23 02:21:00,58.1,53.0,29.47,NNE,22,0.0,0.0,83,0.00,CLR,,0.00,WeatherDisplay:10.37,2013-06-23 09:21:00,
2013-06-23 02:26:00,58.1,53.0,29.47,NNE,22,0.0,0.0,83,0.00,CLR,,0.00,WeatherDisplay:10.37,2013-06-23 09:26:00,
2013-06-23 02:31:00,57.9,52.8,29.47,NNE,22,0.0,0.0,83,0.00,CLR,,0.00,WeatherDisplay:10.37,2013-06-23 09:31:00,
2013-06-23 02:36:00,57.9,52.8,29.47,NNE,22,0.0,0.0,83,0.00,CLR,,0.00,WeatherDisplay:10.37,2013-06-23 09:36:00,
2013-06-23 02:41:00,57.9,52.8,29.47,NNE,22,0.0,0.0,83,0.00,CLR,,0.00,WeatherDisplay:10.37,2013-06-23 09:41:00,
2013-06-23 02:46:00,57.9,52.8,29.47,NNE,22,0.0,0.0,83,0.00,CLR,,0.00,WeatherDisplay:10.37,2013-06-23 09:46:00,
2013-06-23 02:51:00,57.9,52.8,29.47,NNE,22,0.0,0.0,83,0.00,CLR,,0.00,WeatherDisplay:10.37,2013-06-23 09:51:00,
2013-06-23 02:56:00,57.9,52.8,29.47,NNE,22,0.0,0.0,83,0.00,CLR,,0.00,WeatherDisplay:10.37,2013-06-23 09:56:00,
2013-06-23 03:01:00,57.9,52.8,29.47,NNE,22,0.0,0.0,83,0.00,CLR,,0.00,WeatherDisplay:10.37,2013-06-23 10:01:00,
2013-06-23 03:06:00,57.9,52.8,29.47,NNE,22,0.0,0.0,83,0.00,CLR,,0.00,WeatherDisplay:10.37,2013-06-23 10:06:00,
2013-06-23 03:11:00,57.9,52.8,29.47,NNE,22,0.0,0.0,83,0.00,CLR,,0.00,WeatherDisplay:10.37,2013-06-23 10:11:00,
2013-06-23 03:16:00,57.9,53.1,29.47,NNE,22,0.0,0.0,84,0.00,CLR,,0.00,WeatherDisplay:10.37,2013-06-23 10:16:00,
2013-06-23 03:21:00,57.9,53.1,29.47,NNE,22,0.0,0.0,84,0.00,CLR,,0.00,WeatherDisplay:10.37,2013-06-23 10:21:00,
2013-06-23 03:26:00,57.9,53.1,29.46,NNE,22,0.0,0.0,84,0.00,CLR,,0.00,WeatherDisplay:10.37,2013-06-23 10:26:00,
2013-06-23 03:31:00,57.9,53.1,29.46,NNE,22,0.0,0.0,84,0.00,CLR,,0.00,WeatherDisplay:10.37,2013-06-23 10:31:00,
2013-06-23 03:36:00,57.9,53.1,29.46,NNE,22,0.0,0.0,84,0.00,CLR,,0.00,WeatherDisplay:10.37,2013-06-23 10:36:00,
2013-06-23 03:41:00,57.9,53.1,29.46,NNE,22,0.0,0.0,84,0.00,CLR,,0.00,WeatherDisplay:10.37,2013-06-23 10:41:00,
2013-06-23 03:46:00,57.9,53.1,29.46,NNE,22,0.0,0.0,84,0.00,CLR,,0.00,WeatherDisplay:10.37,2013-06-23 10:46:00,
2013-06-23 03:51:00,57.7,52.9,29.46,NNE,22,0.0,0.0,84,0.00,CLR,,0.00,WeatherDisplay:10.37,2013-06-23 10:51:00,
2013-06-23 03:56:00,57.7,52.9,29.47,NNE,22,0.0,0.0,84,0.00,CLR,,0.00,WeatherDisplay:10.37,2013-06-23 10:56:00,
2013-06-23 04:01:00,57.7,52.9,29.47,NNE,22,0.0,0.0,84,0.00,CLR,,0.00,WeatherDisplay:10.37,2013-06-23 11:01:00,
2013-06-23 04:06:00,57.7,53.3,29.46,NNE,22,0.0,0.0,85,0.00,CLR,,0.00,WeatherDisplay:10.37,2013-06-23 11:06:00,
2013-06-23 04:11:00,57.7,53.3,29.47,NNE,22,0.0,0.0,85,0.00,CLR,,0.00,WeatherDisplay:10.37,2013-06-23 11:11:00,
2013-06-23 04:16:00,57.7,53.3,29.46,NNE,22,0.0,0.0,85,0.00,CLR,,0.00,WeatherDisplay:10.37,2013-06-23 11:16:00,
2013-06-23 04:21:00,57.6,53.1,29.47,NNE,22,0.0,0.0,85,0.00,CLR,,0.00,WeatherDisplay:10.37,2013-06-23 11:21:00,
2013-06-23 04:26:00,57.6,53.4,29.46,NNE,22,0.0,0.0,86,0.00,CLR,,0.00,WeatherDisplay:10.37,2013-06-23 11:26:00,
2013-06-23 04:31:00,57.6,53.4,29.47,NNE,22,0.0,0.0,86,0.00,CLR,,0.00,WeatherDisplay:10.37,2013-06-23 11:31:00,
2013-06-23 04:36:00,57.4,53.2,29.46,NNE,22,0.0,0.0,86,0.00,CLR,,0.00,WeatherDisplay:10.37,2013-06-23 11:36:00,
2013-06-23 04:41:00,57.6,53.4,29.46,NNE,22,0.0,0.0,86,0.00,CLR,,0.00,WeatherDisplay:10.37,2013-06-23 11:41:00,
2013-06-23 04:46:00,57.4,53.2,29.46,NNE,22,0.0,0.0,86,0.00,CLR,,0.00,WeatherDisplay:10.37,2013-06-23 11:46:00,
2013-06-23 04:51:00,57.4,53.2,29.46,NNE,22,0.0,0.0,86,0.00,CLR,,0.00,WeatherDisplay:10.37,2013-06-23 11:51:00,
2013-06-23 04:56:00,57.4,53.2,29.46,NNE,22,0.0,0.0,86,0.00,CLR,,0.00,WeatherDisplay:10.37,2013-06-23 11:56:00,
2013-06-23 05:01:00,57.4,53.2,29.46,NNE,22,0.0,0.0,86,0.00,CLR,,0.00,WeatherDisplay:10.37,2013-06-23 12:01:00,
2013-06-23 05:06:00,57.4,53.5,29.46,NNE,22,0.0,0.0,87,0.00,CLR,,0.00,WeatherDisplay:10.37,2013-06-23 12:06:00,
2013-06-23 05:11:00,57.4,53.5,29.46,NNE,22,0.0,0.0,87,0.00,CLR,,0.00,WeatherDisplay:10.37,2013-06-23 12:11:00,
2013-06-23 05:16:00,57.2,53.4,29.46,NNE,22,0.0,0.0,87,0.00,CLR,,0.00,WeatherDisplay:10.37,2013-06-23 12:16:00,
2013-06-23 05:21:00,57.0,53.2,29.46,NNE,22,0.0,0.0,87,0.00,CLR,,0.00,WeatherDisplay:10.37,2013-06-23 12:21:00,
2013-06-23 05:26:00,57.0,53.2,29.46,NNE,22,0.0,0.0,87,0.00,CLR,,0.00,WeatherDisplay:10.37,2013-06-23 12:26:00,
2013-06-23 05:31:00,57.2,53.4,29.46,NNE,22,0.0,0.0,87,0.00,CLR,,0.00,WeatherDisplay:10.37,2013-06-23 12:31:00,
2013-06-23 05:36:00,57.4,53.5,29.46,NNE,22,0.0,0.0,87,0.00,CLR,,0.00,WeatherDisplay:10.37,2013-06-23 12:36:00,
2013-06-23 05:41:00,57.4,53.5,29.46,NNE,22,0.0,0.0,87,0.00,CLR,,0.00,WeatherDisplay:10.37,2013-06-23 12:41:00,
2013-06-23 05:46:00,57.4,53.9,29.46,NNE,22,0.0,0.0,88,0.00,CLR,,0.00,WeatherDisplay:10.37,2013-06-23 12:46:00,
2013-06-23 05:51:00,57.4,53.9,29.46,NNE,22,0.0,0.0,88,0.00,CLR,,0.00,WeatherDisplay:10.37,2013-06-23 12:51:00,
2013-06-23 05:56:00,57.4,53.9,29.46,NNE,22,0.0,0.0,88,0.00,CLR,,0.00,WeatherDisplay:10.37,2013-06-23 12:56:00,
2013-06-23 06:02:00,57.4,53.9,29.46,NNE,22,0.0,0.0,88,0.00,CLR,,0.00,WeatherDisplay:10.37,2013-06-23 13:02:00,
2013-06-23 06:07:00,57.4,53.9,29.46,NNE,22,0.0,0.0,88,0.00,CLR,,0.00,WeatherDisplay:10.37,2013-06-23 13:07:00,
2013-06-23 06:12:00,57.6,54.0,29.46,NNE,22,0.0,0.0,88,0.00,CLR,,0.00,WeatherDisplay:10.37,2013-06-23 13:12:00,
2013-06-23 06:17:00,57.6,54.0,29.46,NNE,22,0.0,0.0,88,0.00,CLR,,0.00,WeatherDisplay:10.37,2013-06-23 13:17:00,
2013-06-23 06:22:00,57.6,54.0,29.46,NNE,22,0.0,0.0,88,0.00,CLR,,0.00,WeatherDisplay:10.37,2013-06-23 13:22:00,
2013-06-23 06:27:00,57.7,54.2,29.46,NNE,22,0.0,0.0,88,0.00,CLR,,0.00,WeatherDisplay:10.37,2013-06-23 13:27:00,
2013-06-23 06:32:00,57.7,54.2,29.46,NNE,22,0.0,0.0,88,0.00,CLR,,0.00,WeatherDisplay:10.37,2013-06-23 13:32:00,
2013-06-23 06:38:00,57.9,54.4,29.46,NNE,22,0.0,0.0,88,0.00,CLR,,0.00,WeatherDisplay:10.37,2013-06-23 13:38:00,
2013-06-23 06:43:00,57.9,54.4,29.46,NNE,22,0.0,0.0,88,0.00,CLR,,0.00,WeatherDisplay:10.37,2013-06-23 13:43:00,
2013-06-23 06:48:00,58.5,55.2,29.46,NNE,22,0.0,0.0,89,0.00,CLR,,0.00,WeatherDisplay:10.37,2013-06-23 13:48:00,
2013-06-23 06:53:00,58.8,55.6,29.46,NNE,22,0.0,0.0,89,0.00,CLR,,0.00,WeatherDisplay:10.37,2013-06-23 13:53:00,
2013-06-23 06:58:00,58.8,55.6,29.46,NNE,22,0.0,0.0,89,0.00,CLR,,0.00,WeatherDisplay:10.37,2013-06-23 13:58:00,
2013-06-23 07:03:00,58.8,55.6,29.46,NNE,22,0.0,0.0,89,0.00,CLR,,0.00,WeatherDisplay:10.37,2013-06-23 14:03:00,
2013-06-23 07:08:00,58.8,55.6,29.46,NNE,22,0.0,0.0,89,0.00,CLR,,0.00,WeatherDisplay:10.37,2013-06-23 14:08:00,
2013-06-23 07:13:00,59.2,55.6,29.46,NNE,22,0.0,0.0,88,0.00,CLR,,0.00,WeatherDisplay:10.37,2013-06-23 14:13:00,
2013-06-23 07:18:00,59.5,56.3,29.46,NNE,22,0.0,0.0,89,0.00,CLR,,0.00,WeatherDisplay:10.37,2013-06-23 14:18:00,
2013-06-23 07:23:00,59.9,56.6,29.46,NNE,22,0.0,0.0,89,0.00,CLR,,0.00,WeatherDisplay:10.37,2013-06-23 14:23:00,
2013-06-23 07:28:00,60.1,56.5,29.46,NNE,22,0.0,0.0,88,0.00,CLR,,0.00,WeatherDisplay:10.37,2013-06-23 14:28:00,
2013-06-23 07:33:00,60.1,56.5,29.46,NNE,22,0.0,0.0,88,0.00,CLR,,0.00,WeatherDisplay:10.37,2013-06-23 14:33:00,
2013-06-23 07:38:00,60.3,56.7,29.46,NNE,22,0.0,0.0,88,0.00,CLR,,0.00,WeatherDisplay:10.37,2013-06-23 14:38:00,
2013-06-23 07:43:00,60.4,56.9,29.45,NNE,22,0.0,0.0,88,0.00,CLR,,0.00,WeatherDisplay:10.37,2013-06-23 14:43:00,
2013-06-23 07:48:00,60.6,57.0,29.45,NNE,22,0.0,0.0,88,0.00,CLR,,0.00,WeatherDisplay:10.37,2013-06-23 14:48:00,
2013-06-23 07:53:00,61.3,57.8,29.45,NNE,22,0.0,0.0,88,0.00,CLR,,0.00,WeatherDisplay:10.37,2013-06-23 14:53:00,
2013-06-23 07:58:00,61.7,58.1,29.45,NNE,22,0.0,0.0,88,0.00,CLR,,0.00,WeatherDisplay:10.37,2013-06-23 14:58:00,
2013-06-23 08:03:00,62.2,58.6,29.45,NNE,22,0.0,0.0,88,0.00,CLR,,0.00,WeatherDisplay:10.37,2013-06-23 15:03:00,
2013-06-23 08:09:00,62.8,58.9,29.46,NNE,22,0.0,0.0,87,0.00,CLR,,0.00,WeatherDisplay:10.37,2013-06-23 15:09:00,
2013-06-23 08:14:00,63.1,59.2,29.46,NNE,22,0.0,0.0,87,0.00,CLR,,0.00,WeatherDisplay:10.37,2013-06-23 15:14:00,
2013-06-23 08:19:00,63.3,59.1,29.45,NNE,22,0.0,0.0,86,0.00,CLR,,0.00,WeatherDisplay:10.37,2013-06-23 15:19:00,
2013-06-23 08:24:00,63.3,59.1,29.45,North,0,0.0,0.0,86,0.00,CLR,,0.00,WeatherDisplay:10.37,2013-06-23 15:24:00,
2013-06-23 08:29:00,63.3,58.4,29.45,North,0,0.0,0.0,84,0.00,CLR,,0.00,WeatherDisplay:10.37,2013-06-23 15:29:00,
2013-06-23 08:35:00,63.5,58.9,29.45,North,0,0.0,0.0,85,0.00,CLR,,0.00,WeatherDisplay:10.37,2013-06-23 15:35:00,
2013-06-23 08:40:00,64.0,59.1,29.45,North,0,0.0,0.0,84,0.00,CLR,,0.00,WeatherDisplay:10.37,2013-06-23 15:40:00,
2013-06-23 08:45:00,64.0,59.1,29.45,North,0,0.0,0.0,84,0.00,CLR,,0.00,WeatherDisplay:10.37,2013-06-23 15:45:00,
2013-06-23 08:50:00,64.9,60.0,29.45,North,0,0.0,0.0,84,0.00,CLR,,0.00,WeatherDisplay:10.37,2013-06-23 15:50:00,
2013-06-23 08:55:00,65.1,60.2,29.45,West,270,0.0,0.0,84,0.00,CLR,,0.00,WeatherDisplay:10.37,2013-06-23 15:55:00,
2013-06-23 09:02:00,65.7,60.0,29.45,West,270,0.0,0.0,82,0.00,CLR,,0.00,WeatherDisplay:10.37,2013-06-23 16:02:00,
2013-06-23 09:07:00,65.8,60.2,29.45,West,270,0.0,0.0,82,0.00,CLR,,0.00,WeatherDisplay:10.37,2013-06-23 16:07:00,
2013-06-23 09:12:00,66.0,60.0,29.44,West,270,0.0,0.0,81,0.00,CLR,,0.00,WeatherDisplay:10.37,2013-06-23 16:12:00,
2013-06-23 09:17:00,66.0,59.7,29.44,West,270,0.0,0.0,80,0.00,CLR,,0.00,WeatherDisplay:10.37,2013-06-23 16:17:00,
2013-06-23 09:22:00,66.2,59.8,29.44,West,270,0.0,0.0,80,0.00,CLR,,0.00,WeatherDisplay:10.37,2013-06-23 16:22:00,
2013-06-23 09:27:00,66.7,60.4,29.44,West,270,0.0,0.0,80,0.00,CLR,,0.00,WeatherDisplay:10.37,2013-06-23 16:27:00,
2013-06-23 09:32:00,66.9,60.5,29.43,West,270,0.0,0.0,80,0.00,CLR,,0.00,WeatherDisplay:10.37,2013-06-23 16:32:00,
2013-06-23 09:38:00,67.1,60.0,29.43,NW,315,0.0,0.0,78,0.00,CLR,,0.00,WeatherDisplay:10.37,2013-06-23 16:38:00,
2013-06-23 09:43:00,67.6,60.5,29.44,West,270,0.0,0.0,78,0.00,CLR,,0.00,WeatherDisplay:10.37,2013-06-23 16:43:00,
2013-06-23 09:49:00,67.8,60.0,29.44,SW,225,0.0,0.0,76,0.00,CLR,,0.00,WeatherDisplay:10.37,2013-06-23 16:49:00,
2013-06-23 09:54:00,68.4,60.5,29.43,WSW,248,0.0,0.0,76,0.00,CLR,,0.00,WeatherDisplay:10.37,2013-06-23 16:54:00,
2013-06-23 09:58:00,68.7,60.8,29.44,WSW,248,0.0,0.0,76,0.00,CLR,,0.00,WeatherDisplay:10.37,2013-06-23 16:58:00,
2013-06-23 09:59:00,68.7,60.8,29.44,WSW,248,0.0,0.0,76,0.00,CLR,,0.00,WeatherDisplay:10.37,2013-06-23 16:59:00,
2013-06-23 10:00:00,68.7,60.8,29.44,WSW,248,0.0,0.0,76,0.00,CLR,,0.00,WeatherDisplay:10.37,2013-06-23 17:00:00,
2013-06-23 10:05:00,68.7,60.5,29.43,WSW,248,0.0,0.0,75,0.00,CLR,,0.00,WeatherDisplay:10.37,2013-06-23 17:05:00,
2013-06-23 10:08:00,68.7,60.5,29.44,WSW,248,0.0,0.0,75,0.00,CLR,,0.00,WeatherDisplay:10.37,2013-06-23 17:08:00,
2013-06-23 10:14:00,68.7,60.1,29.43,West,270,0.0,0.0,74,0.00,CLR,,0.00,WeatherDisplay:10.37,2013-06-23 17:14:00,
2013-06-23 10:19:00,68.7,60.1,29.43,West,270,0.0,0.0,74,0.00,CLR,,0.00,WeatherDisplay:10.37,2013-06-23 17:19:00,
2013-06-23 10:24:00,68.9,60.3,29.43,WSW,248,0.0,0.0,74,0.00,CLR,,0.00,WeatherDisplay:10.37,2013-06-23 17:24:00,
2013-06-23 10:29:00,69.4,60.8,29.43,WSW,248,0.0,0.0,74,0.00,CLR,,0.00,WeatherDisplay:10.37,2013-06-23 17:29:00,
2013-06-23 10:34:00,69.6,61.0,29.43,West,270,0.0,0.0,74,0.00,CLR,,0.00,WeatherDisplay:10.37,2013-06-23 17:34:00,
2013-06-23 10:39:00,69.6,59.8,29.43,North,0,0.0,0.0,71,0.00,CLR,,0.00,WeatherDisplay:10.37,2013-06-23 17:39:00,
2013-06-23 10:44:00,69.6,59.8,29.42,NNW,338,0.0,0.0,71,0.00,CLR,,0.00,WeatherDisplay:10.37,2013-06-23 17:44:00,
2013-06-23 10:49:00,69.6,59.4,29.42,NNE,22,0.0,0.0,70,0.00,CLR,,0.00,WeatherDisplay:10.37,2013-06-23 17:49:00,
2013-06-23 10:54:00,69.4,59.2,29.42,NNW,338,0.0,0.0,70,0.00,CLR,,0.00,WeatherDisplay:10.37,2013-06-23 17:54:00,
2013-06-23 10:59:00,69.3,59.5,29.42,West,270,0.0,0.0,71,0.00,CLR,,0.00,WeatherDisplay:10.37,2013-06-23 17:59:00,
2013-06-23 11:04:00,69.3,59.1,29.42,NNW,338,0.0,0.0,70,0.00,CLR,,0.00,WeatherDisplay:10.37,2013-06-23 18:04:00,
2013-06-23 11:09:00,69.3,59.1,29.41,West,270,0.0,0.0,70,0.00,CLR,,0.00,WeatherDisplay:10.37,2013-06-23 18:09:00,
2013-06-23 11:14:00,69.6,59.0,29.41,SW,225,1.2,1.2,69,0.00,CLR,,0.00,WeatherDisplay:10.37,2013-06-23 18:14:00,
2013-06-23 11:19:00,69.6,59.0,29.41,WSW,248,0.0,0.0,69,0.00,CLR,,0.00,WeatherDisplay:10.37,2013-06-23 18:19:00,
2013-06-23 11:24:00,69.6,58.6,29.41,WNW,292,0.0,0.0,68,0.00,CLR,,0.00,WeatherDisplay:10.37,2013-06-23 18:24:00,
2013-06-23 11:29:00,69.1,58.5,29.41,NW,315,0.0,0.0,69,0.00,CLR,,0.00,WeatherDisplay:10.37,2013-06-23 18:29:00,
2013-06-23 11:34:00,68.5,58.4,29.41,West,270,3.5,3.5,70,0.00,CLR,,0.00,WeatherDisplay:10.37,2013-06-23 18:34:00,
2013-06-23 11:39:00,67.8,57.7,29.41,NW,315,0.0,0.0,70,0.00,CLR,,0.00,WeatherDisplay:10.37,2013-06-23 18:39:00,
2013-06-23 11:44:00,67.6,57.9,29.41,NNW,338,0.0,0.0,71,0.00,CLR,,0.00,WeatherDisplay:10.37,2013-06-23 18:44:00,
2013-06-23 11:49:00,67.1,57.8,29.41,NNE,22,0.0,0.0,72,0.00,CLR,,0.00,WeatherDisplay:10.37,2013-06-23 18:49:00,
2013-06-23 11:54:00,66.9,57.6,29.41,WSW,248,0.0,0.0,72,0.00,CLR,,0.00,WeatherDisplay:10.37,2013-06-23 18:54:00,
2013-06-23 11:59:00,66.6,57.6,29.41,WNW,292,0.0,0.0,73,0.00,CLR,,0.00,WeatherDisplay:10.37,2013-06-23 18:59:00,
2013-06-23 12:04:00,66.4,57.5,29.40,WNW,292,0.0,0.0,73,0.00,CLR,,0.00,WeatherDisplay:10.37,2013-06-23 19:04:00,
2013-06-23 12:09:00,66.4,57.8,29.40,NW,315,0.0,0.0,74,0.00,CLR,,0.00,WeatherDisplay:10.37,2013-06-23 19:09:00,
2013-06-23 12:14:00,66.2,57.7,29.40,North,0,4.6,4.6,74,0.00,CLR,,0.00,WeatherDisplay:10.37,2013-06-23 19:14:00,
2013-06-23 12:19:00,66.0,57.5,29.40,North,0,0.0,0.0,74,0.00,CLR,,0.00,WeatherDisplay:10.37,2013-06-23 19:19:00,
2013-06-23 12:24:00,66.0,57.5,29.40,North,0,0.0,0.0,74,0.00,CLR,,0.00,WeatherDisplay:10.37,2013-06-23 19:24:00,
2013-06-23 12:29:00,66.0,58.2,29.40,North,0,0.0,0.0,76,0.00,CLR,,0.00,WeatherDisplay:10.37,2013-06-23 19:29:00,
2013-06-23 12:34:00,65.8,58.4,29.40,West,270,0.0,0.0,77,0.00,CLR,,0.00,WeatherDisplay:10.37,2013-06-23 19:34:00,
2013-06-23 12:39:00,65.8,58.4,29.40,WNW,292,0.0,0.0,77,0.00,CLR,,0.00,WeatherDisplay:10.37,2013-06-23 19:39:00,
2013-06-23 12:44:00,65.5,57.7,29.40,NNW,338,0.0,0.0,76,0.00,CLR,,0.00,WeatherDisplay:10.37,2013-06-23 19:44:00,
2013-06-23 12:49:00,65.3,57.9,29.40,North,0,0.0,0.0,77,0.00,CLR,,0.00,WeatherDisplay:10.37,2013-06-23 19:49:00,
2013-06-23 12:54:00,65.1,57.7,29.40,WNW,292,0.0,0.0,77,0.00,CLR,,0.00,WeatherDisplay:10.37,2013-06-23 19:54:00,
2013-06-23 12:59:00,64.8,58.1,29.39,West,270,0.0,0.0,79,0.00,CLR,,0.00,WeatherDisplay:10.37,2013-06-23 19:59:00,
2013-06-23 13:04:00,64.9,58.3,29.39,WNW,292,0.0,0.0,79,0.00,CLR,,0.00,WeatherDisplay:10.37,2013-06-23 20:04:00,
2013-06-23 13:09:00,65.1,58.4,29.39,NW,315,0.0,0.0,79,0.00,CLR,,0.00,WeatherDisplay:10.37,2013-06-23 20:09:00,
2013-06-23 13:14:00,65.5,58.8,29.39,NW,315,0.0,0.0,79,0.00,CLR,,0.00,WeatherDisplay:10.37,2013-06-23 20:14:00,
2013-06-23 13:19:00,65.8,59.5,29.38,NW,315,0.0,0.0,80,0.00,CLR,,0.00,WeatherDisplay:10.37,2013-06-23 20:19:00,
2013-06-23 13:24:00,66.2,59.5,29.38,North,0,0.0,0.0,79,0.00,CLR,,0.00,WeatherDisplay:10.37,2013-06-23 20:24:00,
2013-06-23 13:29:00,66.7,60.0,29.38,West,270,0.0,0.0,79,0.00,CLR,,0.00,WeatherDisplay:10.37,2013-06-23 20:29:00,
2013-06-23 13:34:00,67.1,60.4,29.38,West,270,0.0,0.0,79,0.00,CLR,,0.00,WeatherDisplay:10.37,2013-06-23 20:34:00,
2013-06-23 13:39:00,67.8,61.1,29.38,West,270,0.0,0.0,79,0.00,CLR,,0.00,WeatherDisplay:10.37,2013-06-23 20:39:00,
2013-06-23 13:44:00,68.7,61.9,29.39,West,270,0.0,0.0,79,0.00,CLR,,0.00,WeatherDisplay:10.37,2013-06-23 20:44:00,
2013-06-23 13:49:00,68.9,61.4,29.39,West,270,0.0,0.0,77,0.00,CLR,,0.00,WeatherDisplay:10.37,2013-06-23 20:49:00,
2013-06-23 13:54:00,69.4,61.9,29.39,WNW,292,0.0,0.0,77,0.00,CLR,,0.00,WeatherDisplay:10.37,2013-06-23 20:54:00,
2013-06-23 13:59:00,69.8,61.9,29.38,NW,315,0.0,0.0,76,0.00,CLR,,0.00,WeatherDisplay:10.37,2013-06-23 20:59:00,
2013-06-23 14:04:00,70.0,62.1,29.38,West,270,0.0,0.0,76,0.00,CLR,,0.00,WeatherDisplay:10.37,2013-06-23 21:04:00,
2013-06-23 14:09:00,70.2,61.9,29.38,North,0,0.0,0.0,75,0.00,CLR,,0.00,WeatherDisplay:10.37,2013-06-23 21:09:00,
2013-06-23 14:14:00,70.0,61.7,29.38,North,0,0.0,0.0,75,0.00,CLR,,0.00,WeatherDisplay:10.37,2013-06-23 21:14:00,
2013-06-23 14:19:00,70.3,62.0,29.38,NW,315,0.0,0.0,75,0.00,CLR,,0.00,WeatherDisplay:10.37,2013-06-23 21:19:00,
2013-06-23 14:24:00,70.7,62.8,29.38,NW,315,0.0,0.0,76,0.00,CLR,,0.00,WeatherDisplay:10.37,2013-06-23 21:24:00,
2013-06-23 14:29:00,71.4,63.1,29.38,NW,315,0.0,0.0,75,0.00,CLR,,0.00,WeatherDisplay:10.37,2013-06-23 21:29:00,
2013-06-23 14:34:00,72.0,63.2,29.37,NNW,338,0.0,0.0,74,0.00,CLR,,0.00,WeatherDisplay:10.37,2013-06-23 21:34:00,
2013-06-23 14:39:00,72.1,63.4,29.37,NW,315,0.0,0.0,74,0.00,CLR,,0.00,WeatherDisplay:10.37,2013-06-23 21:39:00,
2013-06-23 14:44:00,72.3,63.2,29.37,NW,315,0.0,0.0,73,0.00,CLR,,0.00,WeatherDisplay:10.37,2013-06-23 21:44:00,
2013-06-23 14:49:00,72.5,63.0,29.37,NW,315,0.0,0.0,72,0.00,CLR,,0.00,WeatherDisplay:10.37,2013-06-23 21:49:00,
2013-06-23 14:54:00,72.7,63.1,29.37,NW,315,0.0,0.0,72,0.00,CLR,,0.00,WeatherDisplay:10.37,2013-06-23 21:54:00,
2013-06-23 14:59:00,72.7,62.7,29.36,NW,315,0.0,0.0,71,0.00,CLR,,0.00,WeatherDisplay:10.37,2013-06-23 21:59:00,
2013-06-23 15:04:00,72.5,61.7,29.36,NW,315,0.0,0.0,69,0.00,CLR,,0.00,WeatherDisplay:10.37,2013-06-23 22:04:00,
2013-06-23 15:09:00,72.3,61.6,29.36,NW,315,0.0,0.0,69,0.00,CLR,,0.00,WeatherDisplay:10.37,2013-06-23 22:09:00,
2013-06-23 15:14:00,72.3,62.0,29.36,NW,315,0.0,0.0,70,0.00,CLR,,0.00,WeatherDisplay:10.37,2013-06-23 22:14:00,
2013-06-23 15:19:00,72.7,62.7,29.36,NW,315,0.0,0.0,71,0.00,CLR,,0.00,WeatherDisplay:10.37,2013-06-23 22:19:00,
2013-06-23 15:24:00,73.0,62.7,29.36,NW,315,0.0,0.0,70,0.00,CLR,,0.00,WeatherDisplay:10.37,2013-06-23 22:24:00,
2013-06-23 15:29:00,73.0,62.7,29.36,WNW,292,0.0,0.0,70,0.00,CLR,,0.00,WeatherDisplay:10.37,2013-06-23 22:29:00,
2013-06-23 15:34:00,73.0,62.7,29.35,WNW,292,0.0,0.0,70,0.00,CLR,,0.00,WeatherDisplay:10.37,2013-06-23 22:34:00,
2013-06-23 15:39:00,73.2,62.8,29.35,WNW,292,0.0,0.0,70,0.00,CLR,,0.00,WeatherDisplay:10.37,2013-06-23 22:39:00,
2013-06-23 15:44:00,73.2,62.4,29.35,WNW,292,0.0,0.0,69,0.00,CLR,,0.00,WeatherDisplay:10.37,2013-06-23 22:44:00,
2013-06-23 15:49:00,73.2,62.4,29.35,SSE,158,0.0,0.0,69,0.00,CLR,,0.00,WeatherDisplay:10.37,2013-06-23 22:49:00,
2013-06-23 15:54:00,73.0,62.7,29.35,SSE,158,0.0,0.0,70,0.00,CLR,,0.00,WeatherDisplay:10.37,2013-06-23 22:54:00,
2013-06-23 15:59:00,72.9,62.1,29.35,East,90,0.0,0.0,69,0.00,CLR,,0.00,WeatherDisplay:10.37,2013-06-23 22:59:00,
2013-06-23 16:04:00,72.7,61.9,29.35,East,90,0.0,0.0,69,0.00,CLR,,0.00,WeatherDisplay:10.37,2013-06-23 23:04:00,
2013-06-23 16:09:00,72.3,62.0,29.34,ESE,112,0.0,0.0,70,0.00,CLR,,0.00,WeatherDisplay:10.37,2013-06-23 23:09:00,
2013-06-23 16:14:00,72.3,62.0,29.34,ESE,112,0.0,0.0,70,0.00,CLR,,0.00,WeatherDisplay:10.37,2013-06-23 23:14:00,
2013-06-23 16:19:00,72.1,61.8,29.34,ESE,112,0.0,0.0,70,0.00,CLR,,0.00,WeatherDisplay:10.37,2013-06-23 23:19:00,
2013-06-23 16:24:00,72.1,61.8,29.34,ESE,112,0.0,0.0,70,0.00,CLR,,0.00,WeatherDisplay:10.37,2013-06-23 23:24:00,
2013-06-23 16:29:00,72.3,62.4,29.34,ESE,112,0.0,0.0,71,0.00,CLR,,0.00,WeatherDisplay:10.37,2013-06-23 23:29:00,
2013-06-23 16:34:00,72.3,62.4,29.34,ESE,112,0.0,0.0,71,0.00,CLR,,0.00,WeatherDisplay:10.37,2013-06-23 23:34:00,
2013-06-23 16:39:00,72.1,61.8,29.33,ESE,112,0.0,0.0,70,0.00,CLR,,0.00,WeatherDisplay:10.37,2013-06-23 23:39:00,
2013-06-23 16:44:00,71.8,61.9,29.33,ESE,112,0.0,0.0,71,0.00,CLR,,0.00,WeatherDisplay:10.37,2013-06-23 23:44:00,
2013-06-23 16:49:00,71.4,61.9,29.33,ESE,112,0.0,0.0,72,0.00,CLR,,0.00,WeatherDisplay:10.37,2013-06-23 23:49:00,
2013-06-23 16:54:00,71.2,61.7,29.33,ESE,112,0.0,0.0,72,0.00,CLR,,0.00,WeatherDisplay:10.37,2013-06-23 23:54:00,
2013-06-23 16:59:00,71.4,62.7,29.33,ESE,112,0.0,0.0,74,0.00,CLR,,0.00,WeatherDisplay:10.37,2013-06-23 23:59:00,
2013-06-23 17:04:00,71.4,62.7,29.33,ESE,112,0.0,0.0,74,0.00,CLR,,0.00,WeatherDisplay:10.37,2013-06-24 00:04:00,
2013-06-23 17:09:00,71.2,62.1,29.32,ESE,112,0.0,0.0,73,0.00,CLR,,0.00,WeatherDisplay:10.37,2013-06-24 00:09:00,
2013-06-23 17:14:00,71.2,62.1,29.32,ESE,112,0.0,0.0,73,0.00,CLR,,0.00,WeatherDisplay:10.37,2013-06-24 00:14:00,
2013-06-23 17:19:00,71.1,62.4,29.32,ESE,112,0.0,0.0,74,0.00,CLR,,0.00,WeatherDisplay:10.37,2013-06-24 00:19:00,
2013-06-23 17:24:00,70.7,62.0,29.32,ESE,112,0.0,0.0,74,0.00,CLR,,0.00,WeatherDisplay:10.37,2013-06-24 00:24:00,
2013-06-23 17:29:00,70.3,61.7,29.32,ESE,112,0.0,0.0,74,0.00,CLR,,0.00,WeatherDisplay:10.37,2013-06-24 00:29:00,
2013-06-23 17:34:00,70.2,61.5,29.31,ESE,112,0.0,0.0,74,0.00,CLR,,0.00,WeatherDisplay:10.37,2013-06-24 00:34:00,
2013-06-23 17:39:00,70.0,61.7,29.31,ESE,112,0.0,0.0,75,0.00,CLR,,0.00,WeatherDisplay:10.37,2013-06-24 00:39:00,
2013-06-23 17:44:00,70.0,62.1,29.31,ESE,112,0.0,0.0,76,0.00,CLR,,0.00,WeatherDisplay:10.37,2013-06-24 00:44:00,
2013-06-23 17:49:00,70.0,62.4,29.30,ESE,112,0.0,0.0,77,0.00,CLR,,0.00,WeatherDisplay:10.37,2013-06-24 00:49:00,
2013-06-23 17:54:00,70.2,62.6,29.30,ESE,112,0.0,0.0,77,0.00,CLR,,0.00,WeatherDisplay:10.37,2013-06-24 00:54:00,
2013-06-23 17:59:00,70.0,62.4,29.30,ESE,112,0.0,0.0,77,0.00,CLR,,0.00,WeatherDisplay:10.37,2013-06-24 00:59:00,
2013-06-23 18:04:00,69.6,62.1,29.30,ESE,112,0.0,0.0,77,0.00,CLR,,0.00,WeatherDisplay:10.37,2013-06-24 01:04:00,
2013-06-23 18:09:00,69.4,61.9,29.30,ESE,112,0.0,0.0,77,0.00,CLR,,0.00,WeatherDisplay:10.37,2013-06-24 01:09:00,
2013-06-23 18:14:00,68.9,61.4,29.30,SE,135,0.0,0.0,77,0.00,CLR,,0.00,WeatherDisplay:10.37,2013-06-24 01:14:00,
2013-06-23 18:19:00,68.5,61.0,29.30,SE,135,0.0,0.0,77,0.00,CLR,,0.00,WeatherDisplay:10.37,2013-06-24 01:19:00,
2013-06-23 18:24:00,68.0,60.5,29.30,SE,135,0.0,0.0,77,0.00,CLR,,0.00,WeatherDisplay:10.37,2013-06-24 01:24:00,
2013-06-23 18:29:00,67.8,60.7,29.30,SE,135,0.0,0.0,78,0.00,CLR,,0.00,WeatherDisplay:10.37,2013-06-24 01:29:00,
2013-06-23 18:34:00,67.6,60.5,29.30,SE,135,0.0,0.0,78,0.00,CLR,,0.00,WeatherDisplay:10.37,2013-06-24 01:34:00,
2013-06-23 18:39:00,67.3,60.5,29.30,SE,135,0.0,0.0,79,0.00,CLR,,0.00,WeatherDisplay:10.37,2013-06-24 01:39:00,
2013-06-23 18:44:00,66.7,60.4,29.30,SE,135,0.0,0.0,80,0.00,CLR,,0.00,WeatherDisplay:10.37,2013-06-24 01:44:00,
2013-06-23 18:49:00,66.7,60.4,29.30,SE,135,0.0,0.0,80,0.00,CLR,,0.00,WeatherDisplay:10.37,2013-06-24 01:49:00,
2013-06-23 18:54:00,66.7,60.7,29.30,SE,135,0.0,0.0,81,0.00,CLR,,0.00,WeatherDisplay:10.37,2013-06-24 01:54:00,
2013-06-23 18:59:00,66.6,60.5,29.30,SE,135,0.0,0.0,81,0.00,CLR,,0.00,WeatherDisplay:10.37,2013-06-24 01:59:00,
2013-06-23 19:04:00,66.4,60.7,29.29,SE,135,0.0,0.0,82,0.00,CLR,,0.00,WeatherDisplay:10.37,2013-06-24 02:04:00,
2013-06-23 19:09:00,66.0,60.4,29.29,SE,135,0.0,0.0,82,0.00,CLR,,0.00,WeatherDisplay:10.37,2013-06-24 02:09:00,
2013-06-23 19:14:00,65.7,60.4,29.29,SE,135,0.0,0.0,83,0.00,CLR,,0.00,WeatherDisplay:10.37,2013-06-24 02:14:00,
2013-06-23 19:19:00,65.3,60.0,29.29,SE,135,0.0,0.0,83,0.00,CLR,,0.00,WeatherDisplay:10.37,2013-06-24 02:19:00,
2013-06-23 19:24:00,64.8,59.8,29.29,SE,135,0.0,0.0,84,0.00,CLR,,0.00,WeatherDisplay:10.37,2013-06-24 02:24:00,
2013-06-23 19:29:00,64.6,59.6,29.29,SE,135,0.0,0.0,84,0.02,RA,,0.02,WeatherDisplay:10.37,2013-06-24 02:29:00,
2013-06-23 19:34:00,64.4,59.5,29.29,SE,135,0.0,0.0,84,0.02,RA,,0.02,WeatherDisplay:10.37,2013-06-24 02:34:00,
2013-06-23 19:40:00,64.2,59.6,29.29,SE,135,0.0,0.0,85,0.02,CLR,,0.02,WeatherDisplay:10.37,2013-06-24 02:40:00,
2013-06-23 19:45:00,64.0,59.4,29.28,SE,135,0.0,0.0,85,0.02,CLR,,0.02,WeatherDisplay:10.37,2013-06-24 02:45:00,
2013-06-23 19:50:00,64.0,59.4,29.28,SE,135,0.0,0.0,85,0.02,CLR,,0.02,WeatherDisplay:10.37,2013-06-24 02:50:00,
2013-06-23 19:55:00,64.0,59.8,29.28,SE,135,0.0,0.0,86,0.02,CLR,,0.02,WeatherDisplay:10.37,2013-06-24 02:55:00,
2013-06-23 20:00:00,64.2,59.9,29.28,SE,135,0.0,0.0,86,0.02,CLR,,0.02,WeatherDisplay:10.37,2013-06-24 03:00:00,
2013-06-23 20:05:00,64.4,59.8,29.27,SE,135,0.0,0.0,85,0.02,CLR,,0.02,WeatherDisplay:10.37,2013-06-24 03:05:00,
2013-06-23 20:10:00,64.6,60.3,29.27,SE,135,0.0,0.0,86,0.02,CLR,,0.02,WeatherDisplay:10.37,2013-06-24 03:10:00,
2013-06-23 20:15:00,64.6,60.3,29.27,SE,135,0.0,0.0,86,0.02,CLR,,0.02,WeatherDisplay:10.37,2013-06-24 03:15:00,
2013-06-23 20:20:00,64.6,60.3,29.27,SE,135,0.0,0.0,86,0.02,CLR,,0.02,WeatherDisplay:10.37,2013-06-24 03:20:00,
2013-06-23 20:25:00,64.6,60.3,29.27,SE,135,0.0,0.0,86,0.02,CLR,,0.02,WeatherDisplay:10.37,2013-06-24 03:25:00,
2013-06-23 20:30:00,64.6,60.3,29.26,SE,135,0.0,0.0,86,0.00,CLR,,0.02,WeatherDisplay:10.37,2013-06-24 03:30:00,
2013-06-23 20:35:00,64.6,60.3,29.26,SE,135,0.0,0.0,86,0.00,CLR,,0.02,WeatherDisplay:10.37,2013-06-24 03:35:00,
2013-06-23 20:40:00,64.2,59.9,29.26,SE,135,0.0,0.0,86,0.00,CLR,,0.02,WeatherDisplay:10.37,2013-06-24 03:40:00,
2013-06-23 20:45:00,64.2,59.9,29.26,SE,135,0.0,0.0,86,0.00,CLR,,0.02,WeatherDisplay:10.37,2013-06-24 03:45:00,
2013-06-23 20:50:00,64.0,59.8,29.26,SE,135,0.0,0.0,86,0.00,CLR,,0.02,WeatherDisplay:10.37,2013-06-24 03:50:00,
2013-06-23 20:55:00,64.0,59.8,29.26,SE,135,0.0,0.0,86,0.00,CLR,,0.02,WeatherDisplay:10.37,2013-06-24 03:55:00,
2013-06-23 21:00:00,63.7,59.4,29.26,SE,135,0.0,0.0,86,0.00,CLR,,0.02,WeatherDisplay:10.37,2013-06-24 04:00:00,
2013-06-23 21:01:00,63.7,59.4,29.26,SE,135,0.0,0.0,86,0.00,CLR,,0.02,WeatherDisplay:10.37,2013-06-24 04:01:00,
2013-06-23 21:02:00,63.7,59.4,29.26,SE,135,0.0,0.0,86,0.00,CLR,,0.02,WeatherDisplay:10.37,2013-06-24 04:02:00,
2013-06-23 21:03:00,63.7,59.4,29.26,SE,135,0.0,0.0,86,0.00,CLR,,0.02,WeatherDisplay:10.37,2013-06-24 04:03:00,
2013-06-23 21:04:00,63.7,59.4,29.26,SE,135,0.0,0.0,86,0.00,CLR,,0.02,WeatherDisplay:10.37,2013-06-24 04:04:00,
2013-06-23 21:09:00,63.5,59.2,29.26,SE,135,0.0,0.0,86,0.00,CLR,,0.02,WeatherDisplay:10.37,2013-06-24 04:09:00,
2013-06-23 21:14:00,63.3,59.1,29.26,SE,135,0.0,0.0,86,0.00,CLR,,0.02,WeatherDisplay:10.37,2013-06-24 04:14:00,
2013-06-23 21:19:00,63.1,58.9,29.25,SE,135,0.0,0.0,86,0.00,CLR,,0.02,WeatherDisplay:10.37,2013-06-24 04:19:00,
2013-06-23 21:24:00,63.0,58.7,29.26,SE,135,0.0,0.0,86,0.00,CLR,,0.02,WeatherDisplay:10.37,2013-06-24 04:24:00,
2013-06-23 21:29:00,62.8,58.9,29.25,SE,135,0.0,0.0,87,0.00,CLR,,0.02,WeatherDisplay:10.37,2013-06-24 04:29:00,
2013-06-23 21:34:00,62.8,58.9,29.26,SE,135,0.0,0.0,87,0.00,CLR,,0.02,WeatherDisplay:10.37,2013-06-24 04:34:00,
2013-06-23 21:39:00,62.6,58.7,29.26,SE,135,0.0,0.0,87,0.00,CLR,,0.02,WeatherDisplay:10.37,2013-06-24 04:39:00,
2013-06-23 21:44:00,62.6,58.7,29.26,SE,135,0.0,0.0,87,0.00,CLR,,0.02,WeatherDisplay:10.37,2013-06-24 04:44:00,
2013-06-23 21:49:00,62.4,58.5,29.26,SE,135,0.0,0.0,87,0.00,CLR,,0.02,WeatherDisplay:10.37,2013-06-24 04:49:00,
2013-06-23 21:54:00,62.4,58.8,29.26,SE,135,0.0,0.0,88,0.00,CLR,,0.02,WeatherDisplay:10.37,2013-06-24 04:54:00,
2013-06-23 21:59:00,62.4,58.8,29.27,SE,135,0.0,0.0,88,0.00,CLR,,0.02,WeatherDisplay:10.37,2013-06-24 04:59:00,
2013-06-23 22:04:00,62.4,58.8,29.27,SE,135,0.0,0.0,88,0.00,CLR,,0.02,WeatherDisplay:10.37,2013-06-24 05:04:00,
2013-06-23 22:09:00,62.4,58.8,29.28,SE,135,0.0,0.0,88,0.00,CLR,,0.02,WeatherDisplay:10.37,2013-06-24 05:09:00,
2013-06-23 22:14:00,62.2,58.6,29.28,SE,135,0.0,0.0,88,0.00,CLR,,0.02,WeatherDisplay:10.37,2013-06-24 05:14:00,
2013-06-23 22:19:00,62.2,58.6,29.28,SE,135,0.0,0.0,88,0.02,RA,,0.04,WeatherDisplay:10.37,2013-06-24 05:19:00,
2013-06-23 22:24:00,61.9,58.3,29.28,SE,135,0.0,0.0,88,0.02,RA,,0.04,WeatherDisplay:10.37,2013-06-24 05:24:00,
2013-06-23 22:29:00,61.9,58.6,29.28,SSW,202,0.0,0.0,89,0.06,RA,,0.08,WeatherDisplay:10.37,2013-06-24 05:29:00,
2013-06-23 22:34:00,61.9,58.6,29.29,SSW,202,0.0,0.0,89,0.06,RA,,0.08,WeatherDisplay:10.37,2013-06-24 05:34:00,
2013-06-23 22:39:00,61.5,58.2,29.29,South,180,0.0,0.0,89,0.06,CLR,,0.08,WeatherDisplay:10.37,2013-06-24 05:39:00,
2013-06-23 22:44:00,61.3,58.1,29.29,South,180,0.0,0.0,89,0.06,CLR,,0.08,WeatherDisplay:10.37,2013-06-24 05:44:00,
2013-06-23 22:49:00,61.2,57.9,29.29,South,180,0.0,0.0,89,0.06,CLR,,0.08,WeatherDisplay:10.37,2013-06-24 05:49:00,
2013-06-23 22:54:00,61.0,57.7,29.28,SE,135,0.0,0.0,89,0.16,RA,,0.18,WeatherDisplay:10.37,2013-06-24 05:54:00,
2013-06-23 22:59:00,61.0,57.7,29.29,East,90,0.0,0.0,89,0.16,RA,,0.18,WeatherDisplay:10.37,2013-06-24 05:59:00,
2013-06-23 23:04:00,60.6,57.7,29.28,East,90,0.0,0.0,90,0.20,RA,,0.22,WeatherDisplay:10.37,2013-06-24 06:04:00,
2013-06-23 23:09:00,60.6,57.7,29.28,East,90,0.0,0.0,90,0.24,RA,,0.26,WeatherDisplay:10.37,2013-06-24 06:09:00,
2013-06-23 23:15:00,60.6,57.7,29.28,East,90,0.0,0.0,90,0.24,RA,,0.26,WeatherDisplay:10.37,2013-06-24 06:15:00,
2013-06-23 23:20:00,60.6,57.7,29.28,East,90,0.0,0.0,90,0.22,,,0.26,WeatherDisplay:10.37,2013-06-24 06:20:00,
2013-06-23 23:25:00,60.4,57.5,29.28,East,90,0.0,0.0,90,0.22,CLR,,0.26,WeatherDisplay:10.37,2013-06-24 06:25:00,
2013-06-23 23:30:00,60.4,57.5,29.28,ENE,68,0.0,0.0,90,0.18,CLR,,0.26,WeatherDisplay:10.37,2013-06-24 06:30:00,
2013-06-23 23:37:00,60.4,57.5,29.27,ENE,68,0.0,0.0,90,0.18,CLR,,0.26,WeatherDisplay:10.37,2013-06-24 06:37:00,
2013-06-23 23:42:00,60.4,57.5,29.28,East,90,0.0,0.0,90,0.18,CLR,,0.26,WeatherDisplay:10.37,2013-06-24 06:42:00,
2013-06-23 23:47:00,60.4,57.5,29.28,SE,135,0.0,0.0,90,0.18,CLR,,0.26,WeatherDisplay:10.37,2013-06-24 06:47:00,
2013-06-23 23:52:00,60.4,57.8,29.28,SSE,158,0.0,0.0,91,0.14,CLR,,0.26,WeatherDisplay:10.37,2013-06-24 06:52:00,
2013-06-23 23:57:00,60.4,57.8,29.28,SSE,158,0.0,0.0,91,0.08,CLR,,0.26,WeatherDisplay:10.37,2013-06-24 06:57:00,